Latest Weather Observations for Orange Airport

IDN60801

Issued at 10:32 am EDT Sunday 17 February 2019 (issued every 10 minutes, with the page automatically refreshed every 10 minutes)

About weather observations | Map of weather stations | Latest weather observations for NSW | Other Formats
Station Details ID: 063303 Name: ORANGE AIRPORT AWS Lat: -33.38 Lon: 149.13 Height: 944.65 m
Data from the previous 72 hours. | See also: Recent months at Orange Airport
Date/Time
EDT
Temp
°C
App
Temp
°C
Dew
Point
°C
Rel
Hum
%
Delta-T
°C
Wind Press
QNH
hPa
Press
MSL
hPa
Rain since
9am
mm
Dir  Spd
km/h
Gust
km/h
Spd
kts
Gust
kts
17/10:30am 24.1 21.8 8.9 38 8.5 NW 11 24 6 13 1018.9 1014.2 0.0
17/10:00am 23.4 21.6 10.8 45 7.3 NNW 11 15 6 8 1018.9 1014.2 0.0
17/09:30am 21.8 20.1 11.2 51 6.1 N 11 17 6 9 1019.1 1014.4 0.0
17/09:00am 20.2 19.2 12.4 61 4.6 N 9 11 5 6 1018.9 1014.2 0.0
17/08:30am 18.1 17.7 12.5 70 3.3 N 6 9 3 5 1018.8 1014.1 0.0
17/08:00am 15.4 16.1 12.3 82 1.8 CALM 0 0 0 0 1018.7 1014.0 0.0
17/07:30am 13.0 13.5 11.7 92 0.7 CALM 0 0 0 0 1018.4 1013.6 0.0
17/07:00am 11.2 11.1 9.5 89 0.9 CALM 0 0 0 0 1018.2 1013.4 0.0
17/06:30am 11.7 11.9 10.6 93 0.6 CALM 0 0 0 0 1017.8 1013.1 0.0
17/06:00am 11.0 10.7 8.6 85 1.2 CALM 0 0 0 0 1017.5 1012.7 0.0
17/05:30am 10.9 10.8 9.3 90 0.8 CALM 0 0 0 0 1017.4 1012.6 0.0
17/05:00am 11.1 10.9 9.0 87 1.1 CALM 0 0 0 0 1017.4 1012.6 0.0
17/04:30am 11.1 10.4 8.7 85 1.3 WNW 2 7 1 4 1017.6 1012.9 0.0
17/04:00am 12.1 11.9 9.1 82 1.6 CALM 0 0 0 0 1017.6 1012.9 0.0
17/03:30am 12.1 11.8 8.8 80 1.7 CALM 0 0 0 0 1017.9 1013.2 0.0
17/03:00am 12.5 12.2 8.8 78 1.9 CALM 0 0 0 0 1018.1 1013.3 0.0
17/02:30am 13.6 13.2 8.4 71 2.7 CALM 0 0 0 0 1018.3 1013.5 0.0
17/02:00am 14.5 13.0 8.5 67 3.2 ENE 6 9 3 5 1018.6 1013.9 0.0
17/01:30am 15.1 13.1 8.8 66 3.4 ENE 9 11 5 6 1018.7 1014.0 0.0
17/01:00am 15.1 13.1 8.8 66 3.4 ENE 9 13 5 7 1019.3 1014.5 0.0
17/12:30am 14.7 14.2 8.0 64 3.5 CALM 0 0 0 0 1019.4 1014.6 0.0
17/12:00am 15.0 14.2 8.0 63 3.7 NE 2 6 1 3 1019.6 1014.9 0.0
 
Date/Time
EDT
Temp
°C
App
Temp
°C
Dew
Point
°C
Rel
Hum
%
Delta-T
°C
Wind Press
QNH
hPa
Press
MSL
hPa
Rain since
9am
mm
Dir  Spd
km/h
Gust
km/h
Spd
kts
Gust
kts
16/11:30pm 15.2 13.5 8.2 63 3.7 ENE 7 9 4 5 1019.7 1015.0 0.0
16/11:00pm 15.2 13.7 8.4 64 3.6 E 6 7 3 4 1019.8 1015.1 0.0
16/10:30pm 15.1 13.6 9.0 67 3.3 ENE 7 9 4 5 1020.1 1015.4 0.0
16/10:00pm 15.7 13.8 9.1 65 3.6 SSW 9 11 5 6 1019.9 1015.2 0.0
16/09:30pm 16.4 15.7 8.6 60 4.2 SSW 2 7 1 4 1019.9 1015.2 0.0
16/09:00pm 17.0 16.6 8.4 57 4.6 CALM 0 0 0 0 1019.7 1015.0 0.0
16/08:30pm 19.7 17.9 8.1 47 6.3 SSW 7 9 4 5 1019.7 1015.0 0.0
16/08:00pm 20.4 18.3 8.4 46 6.6 S 9 11 5 6 1019.3 1014.5 0.0
16/07:30pm 22.1 19.6 8.2 41 7.6 SSW 11 15 6 8 1019.1 1014.4 0.0
16/07:00pm 23.0 21.0 8.7 40 8.0 SW 9 11 5 6 1019.0 1014.3 0.0
16/06:30pm 25.1 23.3 8.1 34 9.5 WNW 7 11 4 6 1019.0 1014.3 0.0
16/06:00pm 25.2 23.4 7.8 33 9.6 WNW 7 13 4 7 1019.3 1014.5 0.0
16/05:30pm 25.0 21.6 7.6 33 9.6 S 15 22 8 12 1019.5 1014.8 0.0
16/05:00pm 25.7 22.8 8.2 33 9.8 WSW 13 20 7 11 1019.6 1014.9 0.0
16/04:30pm 25.5 23.4 8.1 33 9.7 SSW 9 20 5 11 1019.7 1015.0 0.0
16/04:00pm 25.3 23.7 8.7 35 9.3 NNW 7 17 4 9 1019.9 1015.2 0.0
16/03:30pm 25.5 22.7 8.5 34 9.6 WNW 13 20 7 11 1020.2 1015.5 0.0
16/03:00pm 24.9 22.2 8.8 36 9.1 WNW 13 19 7 10 1020.7 1016.0 0.0
16/02:30pm 24.9 23.4 8.4 35 9.2 N 6 19 3 10 1021.3 1016.6 0.0
16/02:00pm 24.3 21.6 7.4 34 9.3 NNW 11 15 6 8 1021.7 1017.0 0.0
16/01:30pm 23.8 20.9 6.6 33 9.3 WNW 11 17 6 9 1022.0 1017.3 0.0
16/01:00pm 24.1 22.0 8.1 36 8.9 NNE 9 17 5 9 1022.3 1017.7 0.0
16/12:30pm 22.4 19.5 8.1 40 7.9 NNE 13 22 7 12 1022.7 1018.0 0.0
16/12:00pm 22.1 18.0 7.9 40 7.7 N 19 26 10 14 1023.0 1018.3 0.0
16/11:30am 21.8 18.9 10.9 50 6.3 NE 17 26 9 14 1023.0 1018.3 0.0
16/11:00am 20.0 16.8 9.9 52 5.6 ENE 17 26 9 14 1023.3 1018.7 0.0
16/10:30am 18.9 14.8 10.2 57 4.9 NE 22 28 12 15 1023.4 1018.8 0.0
16/10:00am 17.8 13.6 9.9 60 4.4 NE 22 32 12 17 1023.6 1019.0 0.0
16/09:30am 17.4 13.7 10.3 63 4.0 ENE 20 32 11 17 1023.5 1018.9 0.0
16/09:00am 16.0 12.6 10.5 70 3.0 ENE 19 26 10 14 1023.5 1018.9 0.0
16/08:30am 14.4 11.3 10.2 76 2.3 ENE 17 24 9 13 1023.6 1019.0 0.0
16/08:00am 13.4 10.5 9.6 78 2.0 NE 15 24 8 13 1023.3 1018.7 0.0
16/07:30am 12.6 9.7 9.8 83 1.5 NE 15 20 8 11 1023.2 1018.5 0.0
16/07:00am 11.7 9.6 9.8 88 1.0 NE 11 17 6 9 1023.1 1018.4 0.0
16/06:30am 11.3 9.5 9.4 88 1.0 NE 9 13 5 7 1022.9 1018.2 0.0
16/06:00am 11.7 9.1 9.4 86 1.2 NE 13 20 7 11 1022.7 1018.0 0.0
16/05:30am 12.0 9.1 9.7 86 1.2 NE 15 26 8 14 1022.4 1017.8 0.0
16/05:00am 12.0 8.4 9.7 86 1.2 NE 19 30 10 16 1022.3 1017.7 0.0
16/04:30am 11.8 8.9 9.5 86 1.2 NE 15 22 8 12 1022.5 1017.9 0.0
16/04:00am 11.7 8.7 9.4 86 1.2 ENE 15 22 8 12 1022.9 1018.2 0.0
16/03:30am 12.0 9.0 9.4 84 1.4 ENE 15 20 8 11 1023.1 1018.4 0.0
16/03:00am 12.1 9.2 9.5 84 1.4 ENE 15 20 8 11 1023.2 1018.5 0.0
16/02:30am 12.2 8.9 9.6 84 1.4 ENE 17 24 9 13 1023.4 1018.8 0.0
16/02:00am 12.5 9.6 9.7 83 1.5 ENE 15 20 8 11 1023.9 1019.2 0.0
16/01:30am 13.1 9.5 9.9 81 1.7 ENE 19 28 10 15 1024.1 1019.4 0.0
16/01:00am 13.5 10.1 10.5 82 1.6 ENE 19 24 10 13 1024.4 1019.8 0.0
16/12:30am 13.9 10.5 10.5 80 1.9 ENE 19 32 10 17 1024.4 1019.8 0.0
16/12:00am 14.5 11.1 10.7 78 2.1 ENE 19 26 10 14 1024.5 1019.9 0.0
 
Date/Time
EDT
Temp
°C
App
Temp
°C
Dew
Point
°C
Rel
Hum
%
Delta-T
°C
Wind Press
QNH
hPa
Press
MSL
hPa
Rain since
9am
mm
Dir  Spd
km/h
Gust
km/h
Spd
kts
Gust
kts
15/11:30pm 15.1 11.7 10.7 75 2.4 E 19 24 10 13 1024.5 1019.9 0.0
15/11:00pm 15.8 12.7 10.3 70 3.0 E 17 22 9 12 1024.7 1020.1 0.0
15/10:30pm 16.5 13.7 9.9 65 3.6 E 15 22 8 12 1024.8 1020.2 0.0
15/10:00pm 17.4 14.2 9.8 61 4.2 E 17 24 9 13 1024.6 1020.0 0.0
15/09:30pm 18.1 14.3 9.7 58 4.6 E 20 28 11 15 1024.3 1019.7 0.0
15/09:00pm 18.7 14.1 9.8 56 4.9 E 24 32 13 17 1023.9 1019.2 0.0
15/08:30pm 19.4 15.2 9.6 53 5.5 E 22 32 12 17 1023.5 1018.9 0.0
15/08:00pm 20.4 16.2 9.6 50 6.0 E 22 30 12 16 1023.1 1018.4 0.0
15/07:30pm 22.1 17.4 9.3 44 7.2 E 24 33 13 18 1022.8 1018.1 0.0
15/07:00pm 23.6 19.6 8.1 37 8.6 E 19 30 10 16 1022.4 1017.8 0.0
15/06:30pm 24.6 20.3 6.8 32 9.7 E 19 28 10 15 1022.4 1017.8 0.0
15/06:00pm 25.5 21.5 6.7 30 10.2 E 17 26 9 14 1022.4 1017.8 0.0
15/05:30pm 25.8 22.2 6.9 30 10.4 E 15 26 8 14 1022.2 1017.5 0.0
15/05:00pm 25.7 22.1 6.8 30 10.3 E 15 20 8 11 1022.2 1017.5 0.0
15/04:30pm 26.1 21.7 6.7 29 10.6 E 19 28 10 15 1022.5 1017.9 0.0
15/04:00pm 25.9 22.4 5.5 27 10.9 E 13 20 7 11 1022.8 1018.1 0.0
15/03:30pm 25.7 22.1 4.8 26 11.0 ESE 13 26 7 14 1023.1 1018.4 0.0
15/03:00pm 25.4 21.7 4.5 26 10.9 E 13 20 7 11 1023.4 1018.8 0.0
15/02:30pm 25.2 21.4 5.9 29 10.4 E 15 22 8 12 1023.9 1019.2 0.0
15/02:00pm 24.0 20.8 4.9 29 10.0 ENE 11 20 6 11 1024.2 1019.5 0.0
15/01:30pm 23.9 20.7 6.7 33 9.3 E 13 20 7 11 1024.5 1019.9 0.0
15/01:00pm 23.2 19.8 7.7 37 8.5 NNE 15 24 8 13 1024.7 1020.1 0.0
15/12:30pm 22.6 19.7 8.3 40 7.9 E 13 24 7 13 1025.2 1020.5 0.0
15/12:00pm 21.4 18.4 7.6 41 7.5 NE 13 24 7 13 1025.5 1020.9 0.0
15/11:30am 20.6 16.4 7.6 43 7.0 ENE 19 28 10 15 1025.7 1021.1 0.0
15/11:00am 20.4 15.9 8.7 47 6.4 NE 22 32 12 17 1025.7 1021.1 0.0
15/10:30am 19.5 15.9 8.5 49 6.0 ENE 17 24 9 13 1025.8 1021.2 0.0
15/10:00am 17.5 13.6 8.6 56 4.8 NE 19 26 10 14 1025.5 1020.9 0.0
15/09:30am 16.8 12.8 9.2 61 4.1 ENE 20 32 11 17 1025.4 1020.8 0.0
15/09:00am 15.6 12.3 9.7 68 3.2 ENE 17 28 9 15 1025.3 1020.7 0.0
15/08:30am 14.2 11.5 10.2 77 2.2 ENE 15 20 8 11 1025.1 1020.4 0.0
15/08:00am 13.2 11.0 10.9 86 1.3 ENE 13 20 7 11 1024.7 1020.1 0.0
15/07:30am 11.9 10.4 10.6 92 0.7 ENE 9 13 5 7 1024.4 1019.8 0.0
15/07:00am 10.4 8.7 9.8 96 0.3 ENE 9 13 5 7 1024.3 1019.7 0.0
15/06:30am 9.9 8.0 9.1 95 0.4 ENE 9 9 5 5 1024.2 1019.5 0.0
15/06:00am 10.3 10.1 9.2 93 0.6 CALM 0 2 0 1 1023.9 1019.2 0.0
15/05:30am 10.7 9.3 9.6 93 0.6 NE 7 13 4 7 1023.8 1019.1 0.0
15/05:00am 10.9 9.5 9.5 91 0.7 ENE 7 11 4 6 1023.8 1019.1 0.0
15/04:30am 11.2 9.1 9.8 91 0.7 ENE 11 15 6 8 1023.4 1018.8 0.0
15/04:00am 11.3 9.9 9.7 90 0.8 NE 7 11 4 6 1023.4 1018.8 0.0
15/03:30am 11.7 10.4 9.8 88 1.0 NE 7 9 4 5 1023.3 1018.7 0.0
15/03:00am 12.1 10.1 10.3 89 1.0 ENE 11 13 6 7 1023.2 1018.5 0.0
15/02:30am 12.0 10.9 9.9 87 1.1 ENE 6 7 3 4 1023.2 1018.5 0.0
15/02:00am 12.6 11.4 10.3 86 1.2 ENE 7 9 4 5 1023.2 1018.5 0.0
15/01:30am 12.1 11.0 9.8 86 1.2 ENE 6 11 3 6 1023.1 1018.4 0.0
15/01:00am 13.3 11.8 10.5 83 1.5 ENE 9 15 5 8 1023.1 1018.4 0.0
15/12:30am 13.9 12.4 10.5 80 1.9 ENE 9 13 5 7 1023.1 1018.4 0.0
15/12:00am 14.3 12.7 10.3 77 2.2 ENE 9 13 5 7 1022.9 1018.2 0.0
 
Date/Time
EDT
Temp
°C
App
Temp
°C
Dew
Point
°C
Rel
Hum
%
Delta-T
°C
Wind Press
QNH
hPa
Press
MSL
hPa
Rain since
9am
mm
Dir  Spd
km/h
Gust
km/h
Spd
kts
Gust
kts
14/11:30pm 13.8 11.6 9.3 74 2.4 E 11 13 6 7 1022.8 1018.1 0.0
14/11:00pm 14.5 12.2 8.9 69 3.0 ESE 11 15 6 8 1022.7 1018.0 0.0
14/10:30pm 14.3 12.6 8.3 67 3.2 SSE 7 9 4 5 1022.2 1017.5 0.0
14/10:00pm 16.8 14.8 8.8 59 4.3 S 9 13 5 7 1022.2 1017.5 0.0
14/09:30pm 16.9 14.3 9.3 61 4.1 S 13 15 7 8 1022.0 1017.3 0.0
14/09:00pm 17.7 15.9 9.3 58 4.6 S 9 11 5 6 1021.6 1016.9 0.0
14/08:30pm 18.1 16.2 8.9 55 5.0 E 9 11 5 6 1021.2 1016.5 0.0
14/08:00pm 19.3 16.6 7.4 46 6.3 S 11 13 6 7 1020.9 1016.2 0.0
14/07:30pm 21.8 18.9 6.5 37 8.2 SSW 11 15 6 8 1020.5 1015.8 0.0
14/07:00pm 23.2 21.4 7.3 36 8.6 E 6 11 3 6 1019.9 1015.2 0.0
14/06:30pm 24.1 22.3 7.3 34 9.2 SW 6 17 3 9 1019.7 1015.0 0.0
14/06:00pm 23.7 21.3 6.9 34 9.1 SW 9 17 5 9 1019.5 1014.8 0.0
14/05:30pm 22.9 20.4 6.6 35 8.8 WSW 9 13 5 7 1019.6 1014.9 0.0
14/05:00pm 24.2 21.4 6.9 33 9.4 WSW 11 17 6 9 1019.5 1014.8 0.0
14/04:30pm 23.8 20.7 5.7 31 9.6 W 11 17 6 9 1019.6 1014.9 0.0
14/04:00pm 24.1 21.7 6.8 33 9.4 W 9 19 5 10 1019.6 1014.9 0.0
14/03:30pm 23.5 20.8 5.4 31 9.5 ENE 9 13 5 7 1019.8 1015.1 0.0
14/03:00pm 23.5 21.0 4.5 29 9.8 NE 7 15 4 8 1020.0 1015.3 0.0
14/02:30pm 23.2 20.0 3.2 27 10.1 NNW 9 19 5 10 1020.2 1015.5 0.0
14/02:00pm 22.1 18.5 5.1 33 8.8 N 13 20 7 11 1020.2 1015.5 0.0
14/01:30pm 21.3 19.3 8.6 44 7.0 SSE 9 15 5 8 1020.4 1015.6 0.0
14/01:00pm 19.3 17.6 8.3 49 6.0 W 7 13 4 7 1020.7 1016.0 0.0
14/12:30pm 18.8 15.8 7.6 48 6.0 N 13 17 7 9 1020.9 1016.2 0.0
14/12:00pm 19.4 17.3 9.6 53 5.4 NNE 11 22 6 12 1021.1 1016.4 0.0
14/11:30am 18.4 15.8 9.2 55 5.1 NE 13 22 7 12 1021.1 1016.4 0.0
14/11:00am 19.0 16.4 10.6 58 4.7 ENE 15 24 8 13 1021.2 1016.5 0.0

Other Formats:

Comma delimited format used in spreadsheet applications
http://www.bom.gov.au/fwo/IDN60801/IDN60801.95726.axf

JavaScript Object Notation format (JSON) in row-major order
http://www.bom.gov.au/fwo/IDN60801/IDN60801.95726.json